Awans, Belgium
Current Conditions -  °F | °C
As of 7:20 AM on Monday 26 Jan 2015 (Local Time) from EBLG Reporting Station
Haze Haze  
Wind Chill: -2°   Ceiling: 200
Heat Index:   Visibility: 0.81mi
Dew Point:   Wind: 12mph
Humidity: 93%   Direction: 200°SSW
Pressure: 30.18"   Gusts: NA
Location:  50.67°N, 5.46°E
Report Text: EBLG 260620Z 20010KT 1300 R23L/P2000N R23R/P2000N R05R/P2000N BR BKN002 02/01 Q1022 TEMPO 1000 BR
Loading
Personal Weather Stations






























Interactive Weather Map New forecast layout! Learn more

10-Day Weather Forecast

Advertisements
Track Severe Weather on mobile